Time;durP1;ratioP1;P1;durP2;ratioP2;P2;SDS_P1;SDS_P2;PMS_P1;PMS_P2;Temp;Humidity;BMP_temperature;BMP_pressure;BME280_temperature;BME280_humidity;BME280_pressure;Samples;Min_cycle;Max_cycle;Signal;HPM_P1;HPM_P2
2021/09/11 00:01:27;;;;;;;6.03;5.28;;;;;24.60;101311.00;;;;5048434;28;20196;-76
2021/09/11 00:03:54;;;;;;;6.82;4.50;;;;;24.60;101309.00;;;;5049102;28;20203;-76
2021/09/11 00:06:21;;;;;;;5.57;5.05;;;;;24.50;101308.00;;;;5048520;28;20191;-77
2021/09/11 00:08:48;;;;;;;5.97;4.53;;;;;24.50;101306.00;;;;5048942;28;20192;-76
2021/09/11 00:11:17;;;;;;;5.25;4.30;;;;;24.50;101306.00;;;;5048463;28;20651;-77
2021/09/11 00:13:44;;;;;;;13.02;3.65;;;;;24.40;101314.00;;;;5048725;28;20199;-76
2021/09/11 00:16:11;;;;;;;7.00;4.15;;;;;24.40;101314.00;;;;5047900;28;20200;-77
2021/09/11 00:18:40;;;;;;;5.63;3.72;;;;;24.30;101314.00;;;;5048327;28;20207;-77
2021/09/11 00:21:07;;;;;;;8.77;3.97;;;;;24.30;101313.00;;;;5049349;28;20588;-76
2021/09/11 00:23:34;;;;;;;6.40;4.00;;;;;24.30;101317.00;;;;5048970;28;20207;-77
2021/09/11 00:26:01;;;;;;;4.95;3.40;;;;;24.30;101319.00;;;;5051090;28;20555;-77
2021/09/11 00:28:29;;;;;;;8.15;4.85;;;;;24.30;101316.00;;;;5067313;28;20218;-77
2021/09/11 00:30:56;;;;;;;6.18;3.63;;;;;24.20;101313.00;;;;5052297;28;20195;-77
2021/09/11 00:33:23;;;;;;;5.13;3.95;;;;;24.20;101311.00;;;;5050459;28;20194;-77
2021/09/11 00:35:52;;;;;;;3.97;3.58;;;;;24.20;101315.00;;;;5061222;28;20231;-77
2021/09/11 00:38:19;;;;;;;5.97;3.55;;;;;24.20;101315.00;;;;5052473;28;20731;-77
2021/09/11 00:40:46;;;;;;;5.18;3.72;;;;;24.10;101309.00;;;;5061410;28;20195;-77
2021/09/11 00:43:20;;;;;;;6.43;3.63;;;;;24.10;101313.00;;;;5052483;28;20573;-77
2021/09/11 00:45:47;;;;;;;6.80;4.10;;;;;24.10;101322.00;;;;5052668;28;20211;-76
2021/09/11 00:48:14;;;;;;;6.18;4.15;;;;;24.00;101317.00;;;;5052476;28;20583;-77
2021/09/11 00:50:42;;;;;;;6.13;4.05;;;;;24.00;101314.00;;;;5054412;28;20200;-77
2021/09/11 00:53:12;;;;;;;7.93;3.83;;;;;24.00;101311.00;;;;5062616;28;20199;-77
2021/09/11 00:55:42;;;;;;;6.15;3.92;;;;;23.90;101316.00;;;;5063528;28;20222;-77
2021/09/11 00:58:09;;;;;;;7.18;3.97;;;;;23.90;101317.00;;;;5072130;28;20203;-77
2021/09/11 01:00:36;;;;;;;4.90;4.03;;;;;23.90;101316.00;;;;5069232;28;20199;-77
2021/09/11 01:03:03;;;;;;;5.43;3.50;;;;;23.90;101307.00;;;;5070125;28;20199;-77
2021/09/11 01:05:31;;;;;;;5.78;3.45;;;;;23.80;101311.00;;;;5061630;28;20199;-77
2021/09/11 01:07:58;;;;;;;4.03;3.40;;;;;23.80;101310.00;;;;5052007;28;20196;-77
2021/09/11 01:10:27;;;;;;;4.07;3.33;;;;;23.80;101310.00;;;;5052466;28;20253;-77
2021/09/11 01:12:54;;;;;;;5.75;3.95;;;;;23.70;101314.00;;;;5051668;28;20191;-77
2021/09/11 01:15:33;;;;;;;6.28;4.10;;;;;23.60;101305.00;;;;5052296;28;20223;-77
2021/09/11 01:18:01;;;;;;;4.97;4.45;;;;;23.70;101312.00;;;;5064873;28;20226;-76
2021/09/11 01:20:28;;;;;;;8.63;4.07;;;;;23.60;101313.00;;;;5062701;28;20192;-76
2021/09/11 01:22:56;;;;;;;6.03;4.55;;;;;23.60;101314.00;;;;5051882;28;20202;-76
2021/09/11 01:25:25;;;;;;;6.90;4.50;;;;;23.60;101310.00;;;;5051672;28;20191;-77
2021/09/11 01:27:53;;;;;;;6.18;3.75;;;;;23.60;101313.00;;;;5051127;28;20212;-77
2021/09/11 01:30:22;;;;;;;6.55;4.63;;;;;23.50;101324.00;;;;5050993;28;20199;-77
2021/09/11 01:32:50;;;;;;;7.57;4.15;;;;;23.50;101313.00;;;;5050981;28;21075;-77
2021/09/11 01:35:18;;;;;;;5.40;4.00;;;;;23.50;101316.00;;;;5052354;28;20220;-77
2021/09/11 01:37:45;;;;;;;4.60;3.70;;;;;23.40;101310.00;;;;5057051;28;20246;-76
2021/09/11 01:40:13;;;;;;;5.43;4.55;;;;;23.40;101311.00;;;;5051083;28;21514;-76
2021/09/11 01:42:43;;;;;;;4.15;3.70;;;;;23.40;101312.00;;;;5051231;28;20211;-77
2021/09/11 01:45:12;;;;;;;7.82;5.05;;;;;23.40;101311.00;;;;5050993;28;20203;-77
2021/09/11 01:47:41;;;;;;;4.85;4.28;;;;;23.40;101318.00;;;;5051185;28;20203;-76
2021/09/11 01:50:10;;;;;;;7.05;4.70;;;;;23.30;101311.00;;;;5064172;28;20253;-76
2021/09/11 01:52:37;;;;;;;7.75;4.18;;;;;23.30;101316.00;;;;5060708;28;20203;-76
2021/09/11 01:55:07;;;;;;;8.48;4.22;;;;;23.30;101316.00;;;;5052980;28;20219;-77
2021/09/11 01:57:35;;;;;;;6.05;4.43;;;;;23.30;101319.00;;;;5070518;28;20209;-77
2021/09/11 02:00:04;;;;;;;5.20;4.35;;;;;23.20;101319.00;;;;5057623;28;20673;-77
2021/09/11 02:02:32;;;;;;;7.20;4.82;;;;;23.20;101322.00;;;;5050776;28;20627;-77
2021/09/11 02:04:59;;;;;;;5.53;3.40;;;;;23.20;101320.00;;;;5070222;28;20199;-76
2021/09/11 02:07:26;;;;;;;6.03;4.55;;;;;23.20;101319.00;;;;5070435;28;20210;-77
2021/09/11 02:09:53;;;;;;;5.85;4.10;;;;;23.20;101318.00;;;;5070179;28;20206;-77
2021/09/11 02:12:21;;;;;;;6.07;4.38;;;;;23.10;101323.00;;;;5067841;28;20203;-77
2021/09/11 02:14:48;;;;;;;7.43;4.53;;;;;23.10;101312.00;;;;5050387;28;20220;-77
2021/09/11 02:17:17;;;;;;;7.15;4.57;;;;;23.10;101313.00;;;;5060306;28;20198;-77
2021/09/11 02:19:44;;;;;;;6.72;4.85;;;;;23.10;101315.00;;;;5067828;28;20199;-77
2021/09/11 02:22:11;;;;;;;4.05;3.65;;;;;23.10;101316.00;;;;5050692;28;20204;-77
2021/09/11 02:24:39;;;;;;;8.30;4.20;;;;;23.10;101316.00;;;;5050196;28;20200;-77
2021/09/11 02:27:06;;;;;;;7.22;4.13;;;;;23.10;101319.00;;;;5050811;28;20216;-77
2021/09/11 02:29:34;;;;;;;5.00;4.20;;;;;23.10;101323.00;;;;5051402;28;20245;-77
2021/09/11 02:32:04;;;;;;;5.45;4.13;;;;;23.10;101317.00;;;;5051264;28;20667;-77
2021/09/11 02:34:33;;;;;;;8.63;4.53;;;;;23.00;101327.00;;;;5050167;28;20211;-77
2021/09/11 02:37:01;;;;;;;5.03;3.95;;;;;23.00;101321.00;;;;5050239;28;20238;-77
2021/09/11 02:39:28;;;;;;;10.30;4.57;;;;;23.00;101316.00;;;;5049791;28;20325;-77
2021/09/11 02:41:55;;;;;;;6.25;4.20;;;;;23.00;101324.00;;;;5051638;28;20203;-77
2021/09/11 02:44:23;;;;;;;5.70;3.90;;;;;23.00;101325.00;;;;5058799;28;20199;-76
2021/09/11 02:46:50;;;;;;;7.95;4.30;;;;;23.00;101324.00;;;;5049891;28;20191;-77
2021/09/11 02:49:17;;;;;;;6.75;4.30;;;;;23.00;101325.00;;;;5059369;28;20209;-77
2021/09/11 02:51:46;;;;;;;5.40;4.22;;;;;22.90;101320.00;;;;5069441;28;20198;-76
2021/09/11 02:54:13;;;;;;;5.88;4.28;;;;;22.90;101319.00;;;;5068580;28;20198;-77
2021/09/11 02:56:40;;;;;;;6.35;4.43;;;;;22.90;101314.00;;;;5058350;28;20239;-77
2021/09/11 02:59:08;;;;;;;5.55;4.07;;;;;22.90;101306.00;;;;5067355;28;20204;-77
2021/09/11 03:01:35;;;;;;;4.95;4.28;;;;;22.90;101306.00;;;;5050330;28;20200;-76
2021/09/11 03:04:02;;;;;;;4.97;4.13;;;;;22.90;101306.00;;;;5050964;28;20191;-76
2021/09/11 03:06:29;;;;;;;6.25;4.75;;;;;22.90;101306.00;;;;5049676;28;20198;-76
2021/09/11 03:08:58;;;;;;;7.82;4.95;;;;;22.90;101308.00;;;;5049591;28;20208;-77
2021/09/11 03:11:25;;;;;;;4.40;3.90;;;;;22.90;101301.00;;;;5050476;28;20195;-77
2021/09/11 03:13:52;;;;;;;5.80;4.82;;;;;22.90;101306.00;;;;5049453;28;20223;-77
2021/09/11 03:16:20;;;;;;;6.57;4.85;;;;;22.90;101301.00;;;;5051166;28;20230;-76
2021/09/11 03:18:47;;;;;;;5.47;4.68;;;;;22.90;101302.00;;;;5049582;28;20611;-77
2021/09/11 03:21:14;;;;;;;5.97;4.95;;;;;22.90;101306.00;;;;5050746;28;20191;-77
2021/09/11 03:23:41;;;;;;;5.95;4.13;;;;;22.90;101310.00;;;;5049119;28;20204;-76
2021/09/11 03:26:10;;;;;;;7.38;4.45;;;;;22.90;101311.00;;;;5055605;28;20199;-76
2021/09/11 03:28:37;;;;;;;6.30;4.68;;;;;22.90;101315.00;;;;5049218;28;20224;-77
2021/09/11 03:31:04;;;;;;;5.85;4.45;;;;;22.90;101311.00;;;;5049068;28;20199;-78
2021/09/11 03:33:31;;;;;;;10.68;5.40;;;;;22.90;101312.00;;;;5049474;28;20203;-78
2021/09/11 03:35:59;;;;;;;7.07;5.00;;;;;22.90;101308.00;;;;5062880;28;20277;-78
2021/09/11 03:38:26;;;;;;;6.47;4.70;;;;;22.90;101306.00;;;;5048915;28;20270;-78
2021/09/11 03:40:53;;;;;;;6.47;4.88;;;;;22.90;101304.00;;;;5048644;28;20195;-78
2021/09/11 03:43:23;;;;;;;6.45;4.18;;;;;22.90;101310.00;;;;5048930;28;20209;-78
2021/09/11 03:45:50;;;;;;;7.10;4.90;;;;;23.00;101306.00;;;;5048688;28;20211;-78
2021/09/11 03:48:17;;;;;;;8.60;4.25;;;;;23.00;101311.00;;;;5049291;28;20206;-78
2021/09/11 03:50:45;;;;;;;5.18;3.88;;;;;23.00;101307.00;;;;5050577;28;20218;-78
2021/09/11 03:53:12;;;;;;;10.05;5.35;;;;;23.00;101311.00;;;;5059021;28;20527;-78
2021/09/11 03:55:39;;;;;;;5.25;4.25;;;;;23.00;101314.00;;;;5057900;28;20223;-77
2021/09/11 03:58:08;;;;;;;7.32;5.05;;;;;23.00;101316.00;;;;5059673;28;20206;-77
2021/09/11 04:00:36;;;;;;;6.47;4.93;;;;;22.90;101316.00;;;;5067905;28;20222;-78
2021/09/11 04:03:03;;;;;;;8.50;4.88;;;;;23.00;101314.00;;;;5050600;28;20195;-77
2021/09/11 04:05:31;;;;;;;7.85;4.95;;;;;23.00;101318.00;;;;5048332;28;20195;-77
2021/09/11 04:07:58;;;;;;;8.43;4.88;;;;;23.00;101314.00;;;;5049222;28;20208;-77
2021/09/11 04:10:25;;;;;;;7.05;5.50;;;;;23.00;101311.00;;;;5053780;28;20198;-77
2021/09/11 04:12:52;;;;;;;6.30;4.70;;;;;23.00;101314.00;;;;5068661;28;20187;-78
2021/09/11 04:15:20;;;;;;;8.75;4.90;;;;;23.00;101319.00;;;;5062764;28;20223;-77
2021/09/11 04:17:48;;;;;;;10.35;5.30;;;;;23.00;101321.00;;;;5061748;28;20301;-77
2021/09/11 04:20:15;;;;;;;9.77;4.93;;;;;23.00;101321.00;;;;5062943;28;20379;-78
2021/09/11 04:22:43;;;;;;;7.53;4.30;;;;;23.00;101319.00;;;;5064524;28;20191;-78
2021/09/11 04:25:11;;;;;;;5.95;4.95;;;;;23.00;101319.00;;;;5063874;28;20204;-78
2021/09/11 04:27:38;;;;;;;9.30;5.45;;;;;23.00;101325.00;;;;5048441;28;20227;-78
2021/09/11 04:30:07;;;;;;;7.45;6.32;;;;;23.00;101327.00;;;;5050574;28;20249;-78
2021/09/11 04:32:34;;;;;;;8.07;6.00;;;;;23.00;101329.00;;;;5050612;28;20203;-77
2021/09/11 04:35:03;;;;;;;6.35;5.32;;;;;23.00;101324.00;;;;5049703;28;20241;-78
2021/09/11 04:37:30;;;;;;;8.85;6.53;;;;;23.00;101329.00;;;;5048668;28;20228;-77
2021/09/11 04:39:59;;;;;;;9.23;5.18;;;;;23.10;101330.00;;;;5048522;28;20195;-78
2021/09/11 04:42:26;;;;;;;6.68;5.32;;;;;23.10;101325.00;;;;5048724;28;20233;-78
2021/09/11 04:44:53;;;;;;;10.00;7.07;;;;;23.10;101324.00;;;;5047738;28;20196;-78
2021/09/11 04:47:20;;;;;;;12.38;7.00;;;;;23.10;101327.00;;;;5066772;28;20225;-78
2021/09/11 04:49:47;;;;;;;10.23;6.35;;;;;23.10;101335.00;;;;5068250;28;20191;-77
2021/09/11 04:52:16;;;;;;;11.05;6.95;;;;;23.10;101335.00;;;;5058564;28;21036;-78
2021/09/11 04:54:43;;;;;;;9.40;7.30;;;;;23.10;101333.00;;;;5058994;28;20203;-77
2021/09/11 04:57:11;;;;;;;9.70;6.95;;;;;23.10;101333.00;;;;5056583;28;20226;-77
2021/09/11 04:59:38;;;;;;;9.90;7.70;;;;;23.10;101336.00;;;;5051620;28;20203;-77
2021/09/11 05:02:05;;;;;;;8.23;6.75;;;;;23.10;101336.00;;;;5050104;28;20268;-78
2021/09/11 05:04:33;;;;;;;9.65;6.50;;;;;23.10;101338.00;;;;5057953;28;20202;-77
2021/09/11 05:07:00;;;;;;;10.10;6.72;;;;;23.00;101336.00;;;;5053281;28;20199;-77
2021/09/11 05:09:29;;;;;;;8.80;6.65;;;;;23.10;101339.00;;;;5057257;28;20198;-77
2021/09/11 05:12:01;;;;;;;8.13;6.28;;;;;23.10;101332.00;;;;5060470;28;20194;-77
2021/09/11 05:14:28;;;;;;;10.00;6.32;;;;;23.10;101334.00;;;;5051342;28;20203;-77
2021/09/11 05:16:55;;;;;;;8.77;6.47;;;;;23.10;101340.00;;;;5059419;28;20317;-78
2021/09/11 05:19:22;;;;;;;9.55;6.03;;;;;23.10;101335.00;;;;5051730;28;20195;-77
2021/09/11 05:21:50;;;;;;;8.43;6.68;;;;;23.10;101340.00;;;;5058489;28;20218;-77
2021/09/11 05:24:17;;;;;;;8.82;5.70;;;;;23.10;101337.00;;;;5054663;28;20199;-78
2021/09/11 05:26:46;;;;;;;7.03;6.22;;;;;23.00;101340.00;;;;5052911;28;20223;-78
2021/09/11 05:29:13;;;;;;;9.30;5.70;;;;;23.00;101342.00;;;;5064945;28;20687;-77
2021/09/11 05:31:40;;;;;;;9.75;6.00;;;;;23.00;101338.00;;;;5051433;28;20573;-77
2021/09/11 05:34:08;;;;;;;10.13;6.20;;;;;23.00;101345.00;;;;5052374;28;20206;-77
2021/09/11 05:36:36;;;;;;;5.93;5.20;;;;;23.00;101346.00;;;;5051063;28;20249;-77
2021/09/11 05:39:04;;;;;;;7.53;5.22;;;;;23.00;101349.00;;;;5065316;28;20230;-78
2021/09/11 05:41:32;;;;;;;7.25;6.03;;;;;23.10;101347.00;;;;5064941;28;20200;-78
2021/09/11 05:44:00;;;;;;;7.15;5.28;;;;;23.10;101350.00;;;;5057634;28;20274;-77
2021/09/11 05:46:27;;;;;;;6.80;5.15;;;;;23.10;101346.00;;;;5059358;28;20654;-77
2021/09/11 05:48:55;;;;;;;7.65;5.47;;;;;23.10;101345.00;;;;5052714;28;20208;-78
2021/09/11 05:51:22;;;;;;;8.93;5.20;;;;;23.10;101352.00;;;;5053714;28;20219;-77
2021/09/11 05:53:50;;;;;;;8.07;6.18;;;;;23.10;101361.00;;;;5064081;28;20199;-77
2021/09/11 05:56:17;;;;;;;8.98;5.40;;;;;23.10;101365.00;;;;5066786;28;20264;-77
2021/09/11 05:58:44;;;;;;;7.90;5.10;;;;;23.10;101365.00;;;;5062957;28;20681;-78
2021/09/11 06:01:13;;;;;;;6.85;5.53;;;;;23.10;101369.00;;;;5055132;28;20195;-78
2021/09/11 06:03:40;;;;;;;7.57;4.57;;;;;23.10;101371.00;;;;5061664;28;20576;-78
2021/09/11 06:06:08;;;;;;;5.88;5.15;;;;;23.10;101364.00;;;;5052025;28;20203;-78
2021/09/11 06:08:35;;;;;;;4.85;3.97;;;;;23.10;101365.00;;;;5060928;28;20290;-78
2021/09/11 06:11:02;;;;;;;7.53;5.35;;;;;23.10;101373.00;;;;5050643;28;20226;-77
2021/09/11 06:13:31;;;;;;;6.30;5.22;;;;;23.10;101369.00;;;;5061909;28;20198;-77
2021/09/11 06:15:58;;;;;;;8.52;4.70;;;;;23.10;101370.00;;;;5060773;28;20211;-78
2021/09/11 06:18:26;;;;;;;7.43;4.90;;;;;23.10;101379.00;;;;5052580;28;20215;-78
2021/09/11 06:20:54;;;;;;;6.57;4.90;;;;;23.10;101378.00;;;;5059802;28;20211;-77
2021/09/11 06:23:22;;;;;;;5.90;4.78;;;;;23.20;101387.00;;;;5054252;28;20218;-80
2021/09/11 06:25:49;;;;;;;6.72;5.18;;;;;23.20;101393.00;;;;5056005;28;20195;-80
2021/09/11 06:28:17;;;;;;;8.75;5.45;;;;;23.20;101393.00;;;;5048627;28;20226;-80
2021/09/11 06:30:44;;;;;;;6.82;5.43;;;;;23.20;101393.00;;;;5055103;28;20199;-80
2021/09/11 06:33:11;;;;;;;6.95;4.63;;;;;23.20;101395.00;;;;5049811;28;20211;-80
2021/09/11 06:35:40;;;;;;;7.10;5.00;;;;;23.20;101399.00;;;;5049577;28;20211;-78
2021/09/11 06:38:07;;;;;;;8.88;6.18;;;;;23.20;101401.00;;;;5056574;28;20222;-79
2021/09/11 06:40:37;;;;;;;6.68;4.68;;;;;23.20;101403.00;;;;5055045;28;20207;-79
2021/09/11 06:43:04;;;;;;;6.80;4.80;;;;;23.20;101409.00;;;;5063959;28;20202;-79
2021/09/11 06:45:32;;;;;;;5.65;4.85;;;;;23.20;101402.00;;;;5062739;28;20202;-80
2021/09/11 06:47:59;;;;;;;9.07;5.43;;;;;23.30;101402.00;;;;5054577;28;20218;-80
2021/09/11 06:50:26;;;;;;;6.15;4.72;;;;;23.30;101406.00;;;;5050331;28;20222;-79
2021/09/11 06:52:55;;;;;;;6.80;5.22;;;;;23.30;101412.00;;;;5059250;28;20240;-79
2021/09/11 06:55:22;;;;;;;9.85;4.57;;;;;23.30;101415.00;;;;5061250;28;20202;-79
2021/09/11 06:57:49;;;;;;;7.10;5.38;;;;;23.30;101411.00;;;;5056713;28;20289;-79
2021/09/11 07:00:17;;;;;;;10.32;5.38;;;;;23.30;101409.00;;;;5055458;28;20208;-78
2021/09/11 07:02:44;;;;;;;6.57;4.97;;;;;23.30;101417.00;;;;5056391;28;20202;-77
2021/09/11 07:05:12;;;;;;;7.15;4.63;;;;;23.30;101415.00;;;;5050705;28;20195;-77
2021/09/11 07:07:39;;;;;;;8.05;5.40;;;;;23.40;101414.00;;;;5062855;28;20782;-78
2021/09/11 07:10:09;;;;;;;7.63;5.50;;;;;23.30;101421.00;;;;5068553;28;20669;-78
2021/09/11 07:12:36;;;;;;;6.53;5.32;;;;;23.40;101424.00;;;;5069681;28;20540;-77
2021/09/11 07:15:04;;;;;;;7.65;4.97;;;;;23.40;101422.00;;;;5067066;28;20199;-77
2021/09/11 07:17:32;;;;;;;8.68;5.80;;;;;23.40;101424.00;;;;5050787;28;20222;-77
2021/09/11 07:19:59;;;;;;;6.13;4.95;;;;;23.40;101428.00;;;;5054678;28;20211;-78
2021/09/11 07:22:26;;;;;;;6.90;5.38;;;;;23.40;101421.00;;;;5054306;28;20286;-77
2021/09/11 07:24:54;;;;;;;6.00;5.40;;;;;23.50;101422.00;;;;5051886;28;20206;-75
2021/09/11 07:27:22;;;;;;;9.57;5.70;;;;;23.50;101424.00;;;;5053947;28;21116;-76
2021/09/11 07:29:50;;;;;;;5.63;5.07;;;;;23.50;101422.00;;;;5052212;28;20203;-76
2021/09/11 07:32:17;;;;;;;7.68;5.05;;;;;23.50;101420.00;;;;5060347;28;20199;-76
2021/09/11 07:34:44;;;;;;;11.95;5.32;;;;;23.50;101430.00;;;;5053257;28;20253;-76
2021/09/11 07:37:11;;;;;;;10.07;5.18;;;;;23.50;101423.00;;;;5053770;28;20227;-76
2021/09/11 07:39:39;;;;;;;6.70;4.63;;;;;23.60;101428.00;;;;5062971;28;20207;-76
2021/09/11 07:42:07;;;;;;;6.97;5.10;;;;;23.60;101431.00;;;;5064195;28;20673;-76
2021/09/11 07:44:36;;;;;;;7.40;4.85;;;;;23.60;101436.00;;;;5061659;28;20668;-76
2021/09/11 07:47:03;;;;;;;7.88;4.65;;;;;23.60;101437.00;;;;5051594;28;20569;-76
2021/09/11 07:49:30;;;;;;;7.68;5.00;;;;;23.70;101437.00;;;;5056770;28;20206;-76
2021/09/11 07:51:57;;;;;;;6.72;4.47;;;;;23.70;101448.00;;;;5057063;28;20192;-76
2021/09/11 07:54:25;;;;;;;7.95;4.93;;;;;23.70;101442.00;;;;5048316;28;20641;-77
2021/09/11 07:56:52;;;;;;;5.78;4.45;;;;;23.70;101444.00;;;;5055385;28;20222;-76
2021/09/11 07:59:19;;;;;;;6.22;5.05;;;;;23.80;101446.00;;;;5051311;28;20207;-76
2021/09/11 08:01:48;;;;;;;9.90;5.18;;;;;23.80;101454.00;;;;5058812;28;20199;-75
2021/09/11 08:04:15;;;;;;;5.80;4.57;;;;;23.80;101456.00;;;;5052538;28;20238;-75
2021/09/11 08:06:42;;;;;;;6.75;4.35;;;;;23.80;101449.00;;;;5048941;28;20490;-75
2021/09/11 08:09:09;;;;;;;6.50;4.57;;;;;23.90;101448.00;;;;5050948;28;20192;-75
2021/09/11 08:11:36;;;;;;;7.68;5.63;;;;;23.90;101444.00;;;;5056486;28;20187;-75
2021/09/11 08:14:04;;;;;;;8.70;5.00;;;;;24.00;101444.00;;;;5053911;28;20210;-75
2021/09/11 08:16:31;;;;;;;9.02;4.97;;;;;24.00;101443.00;;;;5050197;28;20226;-75
2021/09/11 08:19:00;;;;;;;6.60;4.72;;;;;24.00;101437.00;;;;5049651;28;20195;-75
2021/09/11 08:21:27;;;;;;;7.32;5.70;;;;;24.00;101441.00;;;;5049737;28;20253;-75
2021/09/11 08:23:54;;;;;;;6.03;4.95;;;;;24.10;101450.00;;;;5053991;28;20565;-75
2021/09/11 08:26:22;;;;;;;7.07;5.15;;;;;24.10;101453.00;;;;5053831;28;20202;-75
2021/09/11 08:28:51;;;;;;;7.32;5.55;;;;;24.10;101453.00;;;;5054096;28;20226;-76
2021/09/11 08:31:20;;;;;;;7.35;5.63;;;;;24.10;101454.00;;;;5055952;28;20242;-76
2021/09/11 08:33:47;;;;;;;9.65;6.07;;;;;24.20;101459.00;;;;5050112;28;20203;-75
2021/09/11 08:36:16;;;;;;;6.85;5.72;;;;;24.20;101461.00;;;;5057913;28;20200;-76
2021/09/11 08:38:43;;;;;;;6.85;5.68;;;;;24.30;101472.00;;;;5057728;28;20238;-76
2021/09/11 08:41:11;;;;;;;8.88;6.35;;;;;24.30;101473.00;;;;5055797;28;20207;-75
2021/09/11 08:43:39;;;;;;;8.32;5.90;;;;;24.40;101476.00;;;;5054668;28;20207;-76
2021/09/11 08:46:06;;;;;;;9.20;6.55;;;;;24.40;101474.00;;;;5048945;28;20196;-75
2021/09/11 08:48:34;;;;;;;9.48;6.90;;;;;24.40;101475.00;;;;5047628;28;20211;-76
2021/09/11 08:51:01;;;;;;;8.75;6.25;;;;;24.40;101487.00;;;;5048363;28;20207;-75
2021/09/11 08:53:30;;;;;;;9.77;7.15;;;;;24.40;101482.00;;;;5068285;28;20195;-75
2021/09/11 08:55:57;;;;;;;6.90;5.90;;;;;24.50;101493.00;;;;5070392;28;20202;-76
2021/09/11 08:58:24;;;;;;;8.20;6.85;;;;;24.50;101487.00;;;;5051621;28;20223;-76
2021/09/11 09:00:54;;;;;;;7.80;6.40;;;;;24.60;101497.00;;;;5052448;28;20200;-76
2021/09/11 09:03:37;;;;;;;10.82;7.13;;;;;24.50;101495.00;;;;5052057;28;20215;-76
2021/09/11 09:06:16;;;;;;;9.35;7.13;;;;;24.50;101493.00;;;;5051846;28;20204;-75
2021/09/11 09:08:47;;;;;;;12.20;7.32;;;;;24.60;101496.00;;;;5051934;28;20673;-76
2021/09/11 09:11:20;;;;;;;9.05;7.35;;;;;24.60;101499.00;;;;5052287;28;20211;-75
2021/09/11 09:13:53;;;;;;;11.73;8.00;;;;;24.60;101492.00;;;;5061149;28;20196;-75
2021/09/11 09:16:20;;;;;;;8.45;7.35;;;;;24.70;101493.00;;;;5051147;28;20211;-76
2021/09/11 09:18:48;;;;;;;8.75;7.75;;;;;24.70;101495.00;;;;5051623;28;20230;-76
2021/09/11 09:21:24;;;;;;;12.40;8.65;;;;;24.60;101499.00;;;;5050653;28;20199;-76
2021/09/11 09:23:54;;;;;;;10.10;7.65;;;;;24.70;101494.00;;;;5051032;28;20989;-76
2021/09/11 09:26:22;;;;;;;9.20;7.45;;;;;24.70;101497.00;;;;5051199;28;20203;-76
2021/09/11 09:29:15;;;;;;;10.32;7.95;;;;;24.60;101502.00;;;;5051443;28;20219;-76
2021/09/11 09:31:44;;;;;;;9.85;7.32;;;;;24.70;101499.00;;;;5037803;28;20629;-76
2021/09/11 09:34:27;;;;;;;12.05;7.30;;;;;24.70;101503.00;;;;5050815;28;20203;-75
2021/09/11 09:36:58;;;;;;;7.70;6.63;;;;;24.70;101499.00;;;;5050189;28;20637;-76
2021/09/11 09:39:26;;;;;;;10.95;8.35;;;;;24.70;101504.00;;;;5050866;28;20616;-76
2021/09/11 09:42:02;;;;;;;10.32;7.95;;;;;24.70;101498.00;;;;5050928;28;20196;-75
2021/09/11 09:44:29;;;;;;;12.65;8.45;;;;;24.70;101501.00;;;;5051107;28;20199;-75
2021/09/11 09:46:56;;;;;;;9.00;7.25;;;;;24.70;101494.00;;;;5052610;28;20214;-76
2021/09/11 09:49:25;;;;;;;10.25;8.23;;;;;24.80;101500.00;;;;5069073;28;20199;-76
2021/09/11 09:51:53;;;;;;;11.40;8.70;;;;;24.80;101498.00;;;;5058493;28;20238;-76
2021/09/11 09:54:21;;;;;;;12.38;8.18;;;;;24.80;101498.00;;;;5064720;28;20217;-77
2021/09/11 09:56:49;;;;;;;10.10;7.93;;;;;24.80;101494.00;;;;5050268;28;20210;-76
2021/09/11 09:59:18;;;;;;;16.27;8.93;;;;;24.80;101494.00;;;;5051025;28;20208;-77
2021/09/11 10:01:49;;;;;;;10.55;8.32;;;;;24.90;101492.00;;;;5059363;28;20260;-76
2021/09/11 10:04:18;;;;;;;9.60;7.70;;;;;24.90;101490.00;;;;5054277;28;20195;-76
2021/09/11 10:06:49;;;;;;;11.90;8.18;;;;;24.90;101489.00;;;;5058247;28;20210;-77
2021/09/11 10:09:21;;;;;;;12.10;8.10;;;;;25.00;101493.00;;;;5054529;28;20203;-78
2021/09/11 10:11:51;;;;;;;10.65;7.70;;;;;25.10;101494.00;;;;5059618;28;20206;-77
2021/09/11 10:14:20;;;;;;;9.65;7.53;;;;;25.20;101494.00;;;;5053416;28;20245;-79
2021/09/11 10:16:58;;;;;;;13.40;7.60;;;;;25.20;101495.00;;;;5056765;28;20195;-78
2021/09/11 10:19:28;;;;;;;7.57;6.68;;;;;25.30;101494.00;;;;5065352;28;20203;-78
2021/09/11 10:22:08;;;;;;;8.60;7.18;;;;;25.20;101493.00;;;;5051459;28;20195;-78
2021/09/11 10:24:37;;;;;;;9.80;7.22;;;;;25.30;101494.00;;;;5058342;28;20210;-77
2021/09/11 10:27:09;;;;;;;9.27;6.68;;;;;25.30;101494.00;;;;5051266;28;20298;-78
2021/09/11 10:29:50;;;;;;;7.90;6.78;;;;;25.30;101487.00;;;;5051190;28;20199;-78
2021/09/11 10:32:21;;;;;;;7.72;6.95;;;;;25.40;101485.00;;;;5048159;28;20386;-75
2021/09/11 10:34:51;;;;;;;8.77;6.60;;;;;25.50;101480.00;;;;5050930;28;20204;-76
2021/09/11 10:37:38;;;;;;;11.60;7.72;;;;;25.40;101494.00;;;;5055556;28;20418;-76
2021/09/11 10:40:25;;;;;;;8.57;6.95;;;;;25.40;101494.00;;;;5061902;28;20295;-76
2021/09/11 10:43:32;;;;;;;7.18;5.68;;;;;25.30;101494.00;;;;5052435;28;20199;-76
2021/09/11 10:46:06;;;;;;;8.32;6.20;;;;;25.50;101486.00;;;;5057140;28;20238;-78
2021/09/11 10:48:48;;;;;;;8.35;6.45;;;;;25.50;101487.00;;;;5053807;28;20702;-78
2021/09/11 10:51:24;;;;;;;8.05;6.93;;;;;25.50;101492.00;;;;5054715;28;20194;-78
2021/09/11 10:54:10;;;;;;;7.40;5.80;;;;;25.40;101489.00;;;;5060148;28;20199;-78
2021/09/11 10:56:40;;;;;;;9.20;6.20;;;;;25.60;101481.00;;;;5053288;28;20214;-76
2021/09/11 10:59:43;;;;;;;7.75;6.38;;;;;25.50;101481.00;;;;5050967;28;20228;-77
2021/09/11 11:02:35;;;;;;;7.57;5.18;;;;;25.60;101484.00;;;;5054074;28;20203;-80
2021/09/11 11:05:08;;;;;;;5.75;5.03;;;;;25.70;101479.00;;;;5050709;28;20260;-79
2021/09/11 11:07:43;;;;;;;6.00;5.05;;;;;25.80;101475.00;;;;5051778;28;20191;-78
2021/09/11 11:10:13;;;;;;;6.28;5.47;;;;;25.80;101477.00;;;;5048010;28;20207;-78
2021/09/11 11:12:44;;;;;;;7.50;4.95;;;;;25.90;101484.00;;;;5049832;28;20206;-79
2021/09/11 11:15:14;;;;;;;7.15;5.05;;;;;25.90;101481.00;;;;5050239;28;20662;-78
2021/09/11 11:17:45;;;;;;;6.18;4.00;;;;;26.00;101483.00;;;;5052056;28;20720;-77
2021/09/11 11:20:14;;;;;;;5.78;4.68;;;;;26.00;101487.00;;;;5047923;28;20199;-77
2021/09/11 11:22:43;;;;;;;7.88;3.85;;;;;26.10;101485.00;;;;5049659;28;20204;-79
2021/09/11 11:25:13;;;;;;;4.13;3.72;;;;;26.10;101477.00;;;;5058198;28;20257;-77
2021/09/11 11:27:41;;;;;;;4.53;3.30;;;;;26.20;101478.00;;;;5056743;28;20221;-78
2021/09/11 11:30:11;;;;;;;6.03;3.35;;;;;26.20;101475.00;;;;5052436;28;20329;-78
2021/09/11 11:32:39;;;;;;;4.78;3.47;;;;;26.20;101470.00;;;;5066499;28;20195;-79
2021/09/11 11:35:09;;;;;;;5.35;3.63;;;;;26.20;101479.00;;;;5060475;28;20206;-78
2021/09/11 11:37:38;;;;;;;4.53;3.40;;;;;26.20;101483.00;;;;5065845;28;20230;-78
2021/09/11 11:40:08;;;;;;;4.57;3.42;;;;;26.20;101479.00;;;;5068361;28;20716;-78
2021/09/11 11:42:37;;;;;;;5.32;4.03;;;;;26.30;101484.00;;;;5065091;28;20203;-77
2021/09/11 11:45:06;;;;;;;3.25;2.95;;;;;26.30;101481.00;;;;5056246;28;20629;-78
2021/09/11 11:47:47;;;;;;;4.70;3.38;;;;;26.30;101479.00;;;;5052417;28;20215;-78
2021/09/11 11:50:18;;;;;;;4.22;3.20;;;;;26.30;101481.00;;;;5048144;28;20192;-79
2021/09/11 11:52:51;;;;;;;5.80;3.75;;;;;26.40;101481.00;;;;5048359;28;20210;-77
2021/09/11 11:55:22;;;;;;;4.82;3.10;;;;;26.40;101482.00;;;;5047680;28;20184;-75
2021/09/11 11:57:49;;;;;;;4.80;3.90;;;;;26.50;101482.00;;;;5047925;28;21088;-75
2021/09/11 12:00:17;;;;;;;4.55;3.75;;;;;26.50;101482.00;;;;5046940;28;20203;-75
2021/09/11 12:02:49;;;;;;;4.70;3.53;;;;;26.50;101484.00;;;;5048073;28;20681;-76
2021/09/11 12:05:21;;;;;;;4.82;3.75;;;;;26.50;101478.00;;;;5048296;28;20192;-75
2021/09/11 12:07:59;;;;;;;4.50;3.72;;;;;26.50;101477.00;;;;5048010;28;20191;-75
2021/09/11 12:10:28;;;;;;;4.93;4.43;;;;;26.60;101472.00;;;;5047869;28;20944;-75
2021/09/11 12:12:57;;;;;;;4.20;3.60;;;;;26.60;101465.00;;;;5047883;28;20203;-75
2021/09/11 12:15:27;;;;;;;4.30;3.58;;;;;26.60;101467.00;;;;5048052;28;20672;-75